createdAt,value
2023-04-01T00:04:08.506Z,4.72
2023-04-01T00:09:11.341Z,5.60
2023-04-01T00:14:15.611Z,4.90
2023-04-01T00:19:18.306Z,4.78
2023-04-01T00:24:21.064Z,4.75
2023-04-01T00:29:30.169Z,4.70
2023-04-01T00:34:32.968Z,5.55
2023-04-01T00:39:37.437Z,5.05
2023-04-01T00:44:42.135Z,5.28
2023-04-01T00:49:48.602Z,5.32
2023-04-01T00:54:57.897Z,5.20
2023-04-01T01:00:02.235Z,5.70
2023-04-01T01:05:06.593Z,5.00
2023-04-01T01:10:16.573Z,5.10
2023-04-01T01:15:26.625Z,4.65
2023-04-01T01:20:57.524Z,4.63
2023-04-01T01:26:19.300Z,4.82
2023-04-01T01:31:27.141Z,4.80
2023-04-01T01:36:35.621Z,4.82
2023-04-01T01:41:43.900Z,4.35
2023-04-01T01:46:47.748Z,4.75
2023-04-01T01:51:51.844Z,4.32
2023-04-01T01:57:08.460Z,4.28
2023-04-01T02:02:14.958Z,4.68
2023-04-01T02:07:24.288Z,4.32
2023-04-01T02:12:27.351Z,4.43
2023-04-01T02:17:33.348Z,4.38
2023-04-01T02:22:43.819Z,4.13
2023-04-01T02:27:48.241Z,5.03
2023-04-01T02:32:51.645Z,5.40
2023-04-01T02:37:57.067Z,5.38
2023-04-01T02:43:00.042Z,5.10
2023-04-01T02:48:02.838Z,5.63
2023-04-01T02:53:07.288Z,5.03
2023-04-01T02:58:10.363Z,5.15
2023-04-01T03:03:14.572Z,5.55
2023-04-01T03:08:18.768Z,6.00
2023-04-01T03:13:21.532Z,5.70
2023-04-01T03:18:24.365Z,5.75
2023-04-01T03:23:28.965Z,5.53
2023-04-01T03:28:31.710Z,6.60
2023-04-01T03:33:34.985Z,6.22
2023-04-01T03:38:39.198Z,6.20
2023-04-01T03:43:42.054Z,6.55
2023-04-01T03:48:44.910Z,5.57
2023-04-01T03:53:49.195Z,5.47
2023-04-01T03:58:51.994Z,5.60
2023-04-01T04:03:55.458Z,6.13
2023-04-01T04:09:01.355Z,6.13
2023-04-01T04:14:06.422Z,5.82
2023-04-01T04:19:09.447Z,5.35
2023-04-01T04:24:14.026Z,5.72
2023-04-01T04:29:35.355Z,6.80
2023-04-01T04:34:38.400Z,6.15
2023-04-01T04:39:42.600Z,7.82
2023-04-01T04:44:45.538Z,6.43
2023-04-01T04:49:48.342Z,6.70
2023-04-01T04:54:52.533Z,6.28
2023-04-01T04:59:55.522Z,6.60
2023-04-01T05:05:27.548Z,7.07
2023-04-01T05:10:32.415Z,7.53
2023-04-01T05:15:35.467Z,7.82
2023-04-01T05:20:38.736Z,6.82
2023-04-01T05:25:43.073Z,7.20
2023-04-01T05:30:46.506Z,7.90
2023-04-01T05:36:08.378Z,7.35
2023-04-01T05:41:12.518Z,6.63
2023-04-01T05:46:19.187Z,3.05
2023-04-01T05:51:27.888Z,1.05
2023-04-01T05:56:31.975Z,1.00
2023-04-01T06:01:35.719Z,1.10
2023-04-01T06:06:38.643Z,1.23
2023-04-01T06:11:59.674Z,1.10
2023-04-01T06:17:25.662Z,0.95
2023-04-01T06:23:03.977Z,1.40
2023-04-01T06:28:40.423Z,1.38
2023-04-01T06:33:59.142Z,1.20
2023-04-01T06:39:17.951Z,1.20
2023-04-01T06:44:31.164Z,0.97
2023-04-01T06:50:01.597Z,1.00
2023-04-01T06:55:27.956Z,0.95
2023-04-01T07:00:58.365Z,0.77
2023-04-01T07:06:05.271Z,1.25
2023-04-01T07:11:18.743Z,0.82
2023-04-01T07:16:46.080Z,0.80
2023-04-01T07:21:52.078Z,0.90
2023-04-01T07:27:03.679Z,0.77
2023-04-01T07:32:24.283Z,0.90
2023-04-01T07:37:33.053Z,0.82
2023-04-01T07:42:47.704Z,0.80
2023-04-01T07:48:08.938Z,0.80
2023-04-01T07:53:20.317Z,0.90
2023-04-01T07:58:36.599Z,0.90
2023-04-01T08:04:00.420Z,0.60
2023-04-01T08:09:11.258Z,0.80
2023-04-01T08:14:57.966Z,0.73
2023-04-01T08:20:30.030Z,0.90
2023-04-01T08:25:36.170Z,0.82
2023-04-01T08:30:44.868Z,1.20
2023-04-01T08:35:55.045Z,0.60
2023-04-01T08:41:20.697Z,1.00
2023-04-01T08:47:22.372Z,0.93
2023-04-01T08:52:36.664Z,0.88
2023-04-01T08:57:54.029Z,0.63
2023-04-01T09:04:00.773Z,0.60
2023-04-01T09:09:36.203Z,0.80
2023-04-01T09:15:20.433Z,0.68
2023-04-01T09:20:43.618Z,0.60
2023-04-01T09:26:07.101Z,0.68
2023-04-01T09:31:27.519Z,0.93
2023-04-01T09:37:03.188Z,0.70
2023-04-01T09:42:28.013Z,0.70
2023-04-01T09:47:59.347Z,0.52
2023-04-01T09:53:16.698Z,0.90
2023-04-01T09:59:03.989Z,0.90
2023-04-01T10:05:06.479Z,0.90
2023-04-01T10:10:46.943Z,0.73
2023-04-01T10:16:22.921Z,1.15
2023-04-01T10:21:59.944Z,1.02
2023-04-01T10:27:23.282Z,1.20
2023-04-01T10:33:29.912Z,0.80
2023-04-01T10:39:06.115Z,0.93
2023-04-01T10:44:51.044Z,0.77
2023-04-01T10:50:28.145Z,1.00
2023-04-01T10:56:13.468Z,1.20
2023-04-01T11:02:11.342Z,1.02
2023-04-01T11:08:26.860Z,0.95
2023-04-01T11:14:01.527Z,1.00
2023-04-01T11:19:27.003Z,0.60
2023-04-01T11:24:59.713Z,0.82
2023-04-01T11:30:31.185Z,1.20
2023-04-01T11:36:16.333Z,0.90
2023-04-01T11:41:32.611Z,0.90
2023-04-01T11:47:07.403Z,1.42
2023-04-01T11:52:28.124Z,1.20
2023-04-01T11:57:53.096Z,1.83
2023-04-01T12:03:14.185Z,1.75
2023-04-01T12:08:33.477Z,1.90
2023-04-01T12:13:46.676Z,2.30
2023-04-01T12:18:56.507Z,2.50
2023-04-01T12:24:27.022Z,2.33
2023-04-01T12:29:54.540Z,2.72
2023-04-01T12:35:15.132Z,2.83
2023-04-01T12:41:02.884Z,3.30
2023-04-01T12:46:17.257Z,2.92
2023-04-01T12:51:33.086Z,3.03
2023-04-01T12:56:45.410Z,3.30
2023-04-01T13:02:03.584Z,3.20
2023-04-01T13:07:28.397Z,3.50
2023-04-01T13:12:51.777Z,3.60
2023-04-01T13:18:05.554Z,3.00
2023-04-01T13:23:21.165Z,3.28
2023-04-01T13:28:27.898Z,3.40
2023-04-01T13:33:41.254Z,2.30
2023-04-01T13:39:05.154Z,2.67
2023-04-01T13:44:14.997Z,2.90
2023-04-01T13:49:51.404Z,2.90
2023-04-01T13:55:20.510Z,3.08
2023-04-01T14:00:35.910Z,3.13
2023-04-01T14:05:53.618Z,2.70
2023-04-01T14:11:15.365Z,3.00
2023-04-01T14:16:36.074Z,3.50
2023-04-01T14:21:48.153Z,3.60
2023-04-01T14:27:14.629Z,3.85
2023-04-01T14:32:29.272Z,3.10
2023-04-01T14:38:19.373Z,3.67
2023-04-01T14:43:53.895Z,3.25
2023-04-01T14:49:02.050Z,3.70
2023-04-01T14:54:10.218Z,3.03
2023-04-01T14:59:28.372Z,3.05
2023-04-01T15:04:49.734Z,4.20
2023-04-01T15:10:01.373Z,4.30
2023-04-01T15:15:25.944Z,3.95
2023-04-01T15:20:47.627Z,3.90
2023-04-01T15:26:09.788Z,4.25
2023-04-01T15:31:17.929Z,5.35
2023-04-01T15:36:31.090Z,4.78
2023-04-01T15:41:43.627Z,4.47
2023-04-01T15:46:50.727Z,4.72
2023-04-01T15:52:05.123Z,5.30
2023-04-01T15:57:30.886Z,6.35
2023-04-01T16:02:40.546Z,6.15
2023-04-01T16:07:57.344Z,5.95
2023-04-01T16:13:12.494Z,5.53
2023-04-01T16:18:42.802Z,4.90
2023-04-01T16:23:50.690Z,6.07
2023-04-01T16:28:59.755Z,6.05
2023-04-01T16:34:11.047Z,5.85
2023-04-01T16:39:32.051Z,4.95
2023-04-01T16:44:50.648Z,5.32
2023-04-01T16:50:00.360Z,4.15
2023-04-01T16:55:14.491Z,5.75
2023-04-01T17:00:25.885Z,6.05
2023-04-01T17:05:44.369Z,5.63
2023-04-01T17:10:59.029Z,6.68
2023-04-01T17:16:16.869Z,6.75
2023-04-01T17:21:27.732Z,6.27
2023-04-01T17:26:39.288Z,5.35
2023-04-01T17:31:48.360Z,5.15
2023-04-01T17:37:08.616Z,5.53
2023-04-01T17:42:16.814Z,6.07
2023-04-01T17:47:41.128Z,4.00
2023-04-01T17:52:50.740Z,5.93
2023-04-01T17:58:02.567Z,5.50
2023-04-01T18:03:19.147Z,6.07
2023-04-01T18:08:38.973Z,5.32
2023-04-01T18:14:25.557Z,4.70
2023-04-01T18:19:37.987Z,4.05
2023-04-01T18:24:48.092Z,3.60
2023-04-01T18:29:54.273Z,3.38
2023-04-01T18:35:04.530Z,3.28
2023-04-01T18:40:23.432Z,3.90
2023-04-01T18:45:30.971Z,3.88
2023-04-01T18:50:45.406Z,3.70
2023-04-01T18:55:54.968Z,4.13
2023-04-01T19:01:18.315Z,3.47
2023-04-01T19:06:26.886Z,4.05
2023-04-01T19:11:41.210Z,4.00
2023-04-01T19:16:55.353Z,4.40
2023-04-01T19:22:41.901Z,4.63
2023-04-01T19:27:51.566Z,5.20
2023-04-01T19:33:03.602Z,4.30
2023-04-01T19:38:12.630Z,5.05
2023-04-01T19:43:29.478Z,4.10
2023-04-01T19:48:46.631Z,3.92
2023-04-01T19:54:00.406Z,3.83
2023-04-01T19:59:12.785Z,3.88
2023-04-01T20:04:19.165Z,3.88
2023-04-01T20:09:40.737Z,3.70
2023-04-01T20:14:49.149Z,3.90
2023-04-01T20:19:59.831Z,3.67
2023-04-01T20:25:13.804Z,4.45
2023-04-01T20:30:55.444Z,3.83
2023-04-01T20:36:08.553Z,2.55
2023-04-01T20:41:15.408Z,3.20
2023-04-01T20:46:24.605Z,3.15
2023-04-01T20:51:31.862Z,2.60
2023-04-01T20:56:47.294Z,3.38
2023-04-01T21:02:00.163Z,3.15
2023-04-01T21:07:13.132Z,3.15
2023-04-01T21:12:29.481Z,2.63
2023-04-01T21:17:44.006Z,2.40
2023-04-01T21:23:01.152Z,2.45
2023-04-01T21:28:20.013Z,2.40
2023-04-01T21:33:39.515Z,2.33
2023-04-01T21:38:58.146Z,2.35
2023-04-01T21:49:48.587Z,2.28
2023-04-01T21:55:34.528Z,3.30
2023-04-01T22:00:40.925Z,2.47
2023-04-01T22:05:53.399Z,2.88
2023-04-01T22:11:04.477Z,2.35
2023-04-01T22:16:16.330Z,2.45
2023-04-01T22:21:28.048Z,2.20
2023-04-01T22:26:38.718Z,2.55
2023-04-01T22:31:47.253Z,2.30
2023-04-01T22:36:58.370Z,1.98
2023-04-01T22:42:12.544Z,1.98
2023-04-01T22:47:25.704Z,1.77
2023-04-01T22:52:37.758Z,1.90
2023-04-01T22:57:46.861Z,1.35
2023-04-01T23:03:03.755Z,1.60
2023-04-01T23:08:47.068Z,1.80
2023-04-01T23:13:54.761Z,1.70
2023-04-01T23:19:04.711Z,1.77
2023-04-01T23:24:18.981Z,2.30
2023-04-01T23:29:23.124Z,2.15
2023-04-01T23:34:33.898Z,1.75
2023-04-01T23:39:40.447Z,1.90
2023-04-01T23:44:45.365Z,1.70
2023-04-01T23:49:51.521Z,1.65
2023-04-01T23:54:58.546Z,1.63
